In Rescue
 
Open Full Screen Window  High Contrast Mode
Wind Gusting 15 knots
11
November 14, 2019 1:31 PM CST
Weather Information
Wind Direction
  260 °
Wind Speed
  11 kt (13 mph)
Wind Gust
  15 kt (17 mph)
Altimeter
29.97 in
Visibility
10 SM
Temperature
-03° C
27° F
Dewpoint
-06° C
21° F
Humidity
80%
1hr Rain Fall
00.00 in.
24hr Rain Fall
00.00 in.
Sky Condition
Overcast @ 1,600 ft
MVFR

METAR KRRT 141931Z AUTO 26011G15KT 10SM OVC016 M03/M06 A2997 RMK AO2

FAA Disclaimer: The data displayed is for advisory purposes only and is not to be used for flight planning or operations.